sensor_id;sensor_type;location;lat;lon;timestamp;P1;durP1;ratioP1;P2;durP2;ratioP2
41653;SDS011;30790;52.030;7.110;2022-07-17T00:02:11;7.95;;;1.75;;
41653;SDS011;30790;52.030;7.110;2022-07-17T00:04:36;3.47;;;1.42;;
41653;SDS011;30790;52.030;7.110;2022-07-17T00:07:01;4.55;;;1.60;;
41653;SDS011;30790;52.030;7.110;2022-07-17T00:09:27;4.28;;;1.70;;
41653;SDS011;30790;52.030;7.110;2022-07-17T00:11:52;5.90;;;1.83;;
41653;SDS011;30790;52.030;7.110;2022-07-17T00:14:17;4.90;;;1.63;;
41653;SDS011;30790;52.030;7.110;2022-07-17T00:16:43;6.30;;;1.65;;
41653;SDS011;30790;52.030;7.110;2022-07-17T00:19:08;3.72;;;1.48;;
41653;SDS011;30790;52.030;7.110;2022-07-17T00:21:33;4.35;;;1.50;;
41653;SDS011;30790;52.030;7.110;2022-07-17T00:23:59;5.05;;;1.60;;
41653;SDS011;30790;52.030;7.110;2022-07-17T00:26:24;4.80;;;1.58;;
41653;SDS011;30790;52.030;7.110;2022-07-17T00:28:49;4.07;;;1.45;;
41653;SDS011;30790;52.030;7.110;2022-07-17T00:31:15;5.30;;;1.45;;
41653;SDS011;30790;52.030;7.110;2022-07-17T00:33:40;2.97;;;1.17;;
41653;SDS011;30790;52.030;7.110;2022-07-17T00:36:06;2.50;;;1.30;;
41653;SDS011;30790;52.030;7.110;2022-07-17T00:38:32;4.05;;;1.40;;
41653;SDS011;30790;52.030;7.110;2022-07-17T00:40:57;2.28;;;1.20;;
41653;SDS011;30790;52.030;7.110;2022-07-17T00:43:24;2.70;;;1.38;;
41653;SDS011;30790;52.030;7.110;2022-07-17T00:45:59;4.95;;;1.67;;
41653;SDS011;30790;52.030;7.110;2022-07-17T00:48:27;5.93;;;1.70;;
41653;SDS011;30790;52.030;7.110;2022-07-17T00:50:53;3.22;;;1.58;;
41653;SDS011;30790;52.030;7.110;2022-07-17T00:53:19;4.40;;;1.33;;
41653;SDS011;30790;52.030;7.110;2022-07-17T00:55:45;4.22;;;1.33;;
41653;SDS011;30790;52.030;7.110;2022-07-17T00:58:23;3.65;;;1.30;;
41653;SDS011;30790;52.030;7.110;2022-07-17T01:00:50;2.45;;;1.15;;
41653;SDS011;30790;52.030;7.110;2022-07-17T01:03:20;3.45;;;1.30;;
41653;SDS011;30790;52.030;7.110;2022-07-17T01:05:47;3.70;;;1.42;;
41653;SDS011;30790;52.030;7.110;2022-07-17T01:08:13;2.67;;;1.35;;
41653;SDS011;30790;52.030;7.110;2022-07-17T01:10:38;3.83;;;1.08;;
41653;SDS011;30790;52.030;7.110;2022-07-17T01:13:05;2.03;;;1.00;;
41653;SDS011;30790;52.030;7.110;2022-07-17T01:15:31;3.70;;;1.02;;
41653;SDS011;30790;52.030;7.110;2022-07-17T01:17:57;3.10;;;1.20;;
41653;SDS011;30790;52.030;7.110;2022-07-17T01:20:24;3.17;;;1.20;;
41653;SDS011;30790;52.030;7.110;2022-07-17T01:22:50;2.67;;;1.35;;
41653;SDS011;30790;52.030;7.110;2022-07-17T01:25:23;5.38;;;1.50;;
41653;SDS011;30790;52.030;7.110;2022-07-17T01:27:49;3.35;;;1.33;;
41653;SDS011;30790;52.030;7.110;2022-07-17T01:30:15;2.60;;;1.13;;
41653;SDS011;30790;52.030;7.110;2022-07-17T01:32:41;2.22;;;1.13;;
41653;SDS011;30790;52.030;7.110;2022-07-17T01:35:07;2.95;;;1.25;;
41653;SDS011;30790;52.030;7.110;2022-07-17T01:37:35;3.97;;;0.98;;
41653;SDS011;30790;52.030;7.110;2022-07-17T01:40:02;1.65;;;1.20;;
41653;SDS011;30790;52.030;7.110;2022-07-17T01:42:28;3.42;;;1.20;;
41653;SDS011;30790;52.030;7.110;2022-07-17T01:44:54;4.35;;;1.58;;
41653;SDS011;30790;52.030;7.110;2022-07-17T01:47:20;4.15;;;1.45;;
41653;SDS011;30790;52.030;7.110;2022-07-17T01:49:47;2.75;;;1.50;;
41653;SDS011;30790;52.030;7.110;2022-07-17T01:52:14;1.70;;;0.95;;
41653;SDS011;30790;52.030;7.110;2022-07-17T01:54:40;3.20;;;1.20;;
41653;SDS011;30790;52.030;7.110;2022-07-17T01:57:06;2.17;;;1.25;;
41653;SDS011;30790;52.030;7.110;2022-07-17T01:59:32;3.88;;;1.35;;
41653;SDS011;30790;52.030;7.110;2022-07-17T02:01:57;2.20;;;1.27;;
41653;SDS011;30790;52.030;7.110;2022-07-17T02:04:22;3.22;;;1.08;;
41653;SDS011;30790;52.030;7.110;2022-07-17T02:06:48;3.17;;;1.45;;
41653;SDS011;30790;52.030;7.110;2022-07-17T02:09:13;3.20;;;1.25;;
41653;SDS011;30790;52.030;7.110;2022-07-17T02:11:38;2.65;;;1.17;;
41653;SDS011;30790;52.030;7.110;2022-07-17T02:14:04;2.10;;;0.90;;
41653;SDS011;30790;52.030;7.110;2022-07-17T02:16:29;3.92;;;1.17;;
41653;SDS011;30790;52.030;7.110;2022-07-17T02:18:54;3.05;;;1.15;;
41653;SDS011;30790;52.030;7.110;2022-07-17T02:21:20;2.60;;;1.38;;
41653;SDS011;30790;52.030;7.110;2022-07-17T02:23:45;3.22;;;1.30;;
41653;SDS011;30790;52.030;7.110;2022-07-17T02:26:10;2.28;;;0.90;;
41653;SDS011;30790;52.030;7.110;2022-07-17T02:28:36;4.53;;;1.02;;
41653;SDS011;30790;52.030;7.110;2022-07-17T02:31:01;2.47;;;1.27;;
41653;SDS011;30790;52.030;7.110;2022-07-17T02:33:27;2.05;;;1.10;;
41653;SDS011;30790;52.030;7.110;2022-07-17T02:35:52;2.33;;;1.20;;
41653;SDS011;30790;52.030;7.110;2022-07-17T02:38:17;1.35;;;0.88;;
41653;SDS011;30790;52.030;7.110;2022-07-17T02:40:43;2.63;;;1.23;;
41653;SDS011;30790;52.030;7.110;2022-07-17T02:43:08;2.75;;;1.17;;
41653;SDS011;30790;52.030;7.110;2022-07-17T02:45:34;2.40;;;1.33;;
41653;SDS011;30790;52.030;7.110;2022-07-17T02:47:59;4.45;;;1.95;;
41653;SDS011;30790;52.030;7.110;2022-07-17T02:50:25;4.38;;;1.40;;
41653;SDS011;30790;52.030;7.110;2022-07-17T02:52:50;5.55;;;1.10;;
41653;SDS011;30790;52.030;7.110;2022-07-17T02:55:16;1.85;;;0.88;;
41653;SDS011;30790;52.030;7.110;2022-07-17T02:57:42;3.90;;;1.55;;
41653;SDS011;30790;52.030;7.110;2022-07-17T03:00:09;3.35;;;1.05;;
41653;SDS011;30790;52.030;7.110;2022-07-17T03:02:36;2.05;;;0.82;;
41653;SDS011;30790;52.030;7.110;2022-07-17T03:05:02;3.78;;;1.02;;
41653;SDS011;30790;52.030;7.110;2022-07-17T03:07:28;1.55;;;1.02;;
41653;SDS011;30790;52.030;7.110;2022-07-17T03:09:54;2.83;;;1.00;;
41653;SDS011;30790;52.030;7.110;2022-07-17T03:12:19;2.47;;;1.20;;
41653;SDS011;30790;52.030;7.110;2022-07-17T03:14:44;1.90;;;1.33;;
41653;SDS011;30790;52.030;7.110;2022-07-17T03:17:10;2.65;;;1.10;;
41653;SDS011;30790;52.030;7.110;2022-07-17T03:19:35;2.83;;;1.27;;
41653;SDS011;30790;52.030;7.110;2022-07-17T03:22:01;2.70;;;1.10;;
41653;SDS011;30790;52.030;7.110;2022-07-17T03:24:26;2.88;;;1.10;;
41653;SDS011;30790;52.030;7.110;2022-07-17T03:26:51;1.02;;;0.80;;
41653;SDS011;30790;52.030;7.110;2022-07-17T03:29:17;2.95;;;1.00;;
41653;SDS011;30790;52.030;7.110;2022-07-17T03:31:43;1.73;;;0.85;;
41653;SDS011;30790;52.030;7.110;2022-07-17T03:34:09;2.22;;;1.00;;
41653;SDS011;30790;52.030;7.110;2022-07-17T03:36:34;1.80;;;1.10;;
41653;SDS011;30790;52.030;7.110;2022-07-17T03:39:00;2.42;;;1.13;;
41653;SDS011;30790;52.030;7.110;2022-07-17T03:41:25;2.80;;;1.10;;
41653;SDS011;30790;52.030;7.110;2022-07-17T03:43:51;1.95;;;0.90;;
41653;SDS011;30790;52.030;7.110;2022-07-17T03:46:16;2.17;;;1.33;;
41653;SDS011;30790;52.030;7.110;2022-07-17T03:48:42;4.35;;;1.20;;
41653;SDS011;30790;52.030;7.110;2022-07-17T03:51:07;1.83;;;0.98;;
41653;SDS011;30790;52.030;7.110;2022-07-17T03:53:32;2.40;;;1.35;;
41653;SDS011;30790;52.030;7.110;2022-07-17T03:55:58;2.10;;;0.90;;
41653;SDS011;30790;52.030;7.110;2022-07-17T03:58:23;1.58;;;1.00;;
41653;SDS011;30790;52.030;7.110;2022-07-17T04:00:48;2.65;;;1.20;;
41653;SDS011;30790;52.030;7.110;2022-07-17T04:03:14;1.90;;;0.90;;
41653;SDS011;30790;52.030;7.110;2022-07-17T04:05:39;1.80;;;0.90;;
41653;SDS011;30790;52.030;7.110;2022-07-17T04:08:04;1.98;;;0.85;;
41653;SDS011;30790;52.030;7.110;2022-07-17T04:10:30;2.00;;;1.00;;
41653;SDS011;30790;52.030;7.110;2022-07-17T04:12:55;2.38;;;1.27;;
41653;SDS011;30790;52.030;7.110;2022-07-17T04:15:20;4.38;;;1.25;;
41653;SDS011;30790;52.030;7.110;2022-07-17T04:18:04;2.80;;;1.00;;
41653;SDS011;30790;52.030;7.110;2022-07-17T04:20:29;3.25;;;1.20;;
41653;SDS011;30790;52.030;7.110;2022-07-17T04:22:55;1.27;;;0.90;;
41653;SDS011;30790;52.030;7.110;2022-07-17T04:25:20;3.28;;;1.10;;
41653;SDS011;30790;52.030;7.110;2022-07-17T04:27:45;1.50;;;1.00;;
41653;SDS011;30790;52.030;7.110;2022-07-17T04:30:11;1.63;;;0.70;;
41653;SDS011;30790;52.030;7.110;2022-07-17T04:32:36;1.13;;;0.90;;
41653;SDS011;30790;52.030;7.110;2022-07-17T04:35:01;1.63;;;0.90;;
41653;SDS011;30790;52.030;7.110;2022-07-17T04:37:27;2.17;;;1.05;;
41653;SDS011;30790;52.030;7.110;2022-07-17T04:39:52;1.70;;;0.80;;
41653;SDS011;30790;52.030;7.110;2022-07-17T04:42:17;2.67;;;0.80;;
41653;SDS011;30790;52.030;7.110;2022-07-17T04:44:43;1.38;;;0.70;;
41653;SDS011;30790;52.030;7.110;2022-07-17T04:47:08;3.30;;;1.25;;
41653;SDS011;30790;52.030;7.110;2022-07-17T04:49:33;1.20;;;0.70;;
41653;SDS011;30790;52.030;7.110;2022-07-17T04:51:59;1.77;;;1.00;;
41653;SDS011;30790;52.030;7.110;2022-07-17T04:54:24;1.25;;;0.55;;
41653;SDS011;30790;52.030;7.110;2022-07-17T04:56:49;1.55;;;1.00;;
41653;SDS011;30790;52.030;7.110;2022-07-17T04:59:14;1.17;;;0.82;;
41653;SDS011;30790;52.030;7.110;2022-07-17T05:01:40;3.13;;;1.23;;
41653;SDS011;30790;52.030;7.110;2022-07-17T05:04:05;1.65;;;0.90;;
41653;SDS011;30790;52.030;7.110;2022-07-17T05:06:31;2.47;;;1.17;;
41653;SDS011;30790;52.030;7.110;2022-07-17T05:08:56;3.25;;;0.88;;
41653;SDS011;30790;52.030;7.110;2022-07-17T05:11:21;1.63;;;0.70;;
41653;SDS011;30790;52.030;7.110;2022-07-17T05:13:47;1.60;;;0.90;;
41653;SDS011;30790;52.030;7.110;2022-07-17T05:16:12;1.45;;;0.88;;
41653;SDS011;30790;52.030;7.110;2022-07-17T05:18:37;2.65;;;0.80;;
41653;SDS011;30790;52.030;7.110;2022-07-17T05:21:03;1.02;;;0.73;;
41653;SDS011;30790;52.030;7.110;2022-07-17T05:23:28;3.60;;;0.73;;
41653;SDS011;30790;52.030;7.110;2022-07-17T05:25:53;1.73;;;0.70;;
41653;SDS011;30790;52.030;7.110;2022-07-17T05:28:19;1.40;;;0.82;;
41653;SDS011;30790;52.030;7.110;2022-07-17T05:30:44;0.77;;;0.70;;
41653;SDS011;30790;52.030;7.110;2022-07-17T05:33:09;3.28;;;1.10;;
41653;SDS011;30790;52.030;7.110;2022-07-17T05:35:35;7.35;;;1.80;;
41653;SDS011;30790;52.030;7.110;2022-07-17T05:38:00;10.43;;;2.55;;
41653;SDS011;30790;52.030;7.110;2022-07-17T05:40:25;4.25;;;1.40;;
41653;SDS011;30790;52.030;7.110;2022-07-17T05:42:51;11.23;;;2.13;;
41653;SDS011;30790;52.030;7.110;2022-07-17T05:45:16;8.15;;;1.73;;
41653;SDS011;30790;52.030;7.110;2022-07-17T05:47:41;3.55;;;1.70;;
41653;SDS011;30790;52.030;7.110;2022-07-17T05:50:07;8.68;;;2.22;;
41653;SDS011;30790;52.030;7.110;2022-07-17T05:52:32;7.95;;;2.20;;
41653;SDS011;30790;52.030;7.110;2022-07-17T05:54:57;8.13;;;1.75;;
41653;SDS011;30790;52.030;7.110;2022-07-17T05:57:23;10.00;;;2.22;;
41653;SDS011;30790;52.030;7.110;2022-07-17T05:59:48;9.93;;;1.90;;
41653;SDS011;30790;52.030;7.110;2022-07-17T06:02:13;6.50;;;2.00;;
41653;SDS011;30790;52.030;7.110;2022-07-17T06:04:39;11.07;;;2.75;;
41653;SDS011;30790;52.030;7.110;2022-07-17T06:07:04;7.65;;;2.42;;
41653;SDS011;30790;52.030;7.110;2022-07-17T06:09:29;10.63;;;2.35;;
41653;SDS011;30790;52.030;7.110;2022-07-17T06:11:55;7.32;;;2.65;;
41653;SDS011;30790;52.030;7.110;2022-07-17T06:14:20;7.30;;;2.08;;
41653;SDS011;30790;52.030;7.110;2022-07-17T06:16:45;9.95;;;2.40;;
41653;SDS011;30790;52.030;7.110;2022-07-17T06:19:10;10.50;;;2.08;;
41653;SDS011;30790;52.030;7.110;2022-07-17T06:21:36;14.88;;;2.30;;
41653;SDS011;30790;52.030;7.110;2022-07-17T06:24:01;7.80;;;1.98;;
41653;SDS011;30790;52.030;7.110;2022-07-17T06:26:26;14.13;;;2.42;;
41653;SDS011;30790;52.030;7.110;2022-07-17T06:28:52;11.43;;;2.70;;
41653;SDS011;30790;52.030;7.110;2022-07-17T06:31:17;10.68;;;2.92;;
41653;SDS011;30790;52.030;7.110;2022-07-17T06:33:43;11.15;;;2.60;;
41653;SDS011;30790;52.030;7.110;2022-07-17T06:36:08;8.40;;;2.30;;
41653;SDS011;30790;52.030;7.110;2022-07-17T06:38:34;11.40;;;1.95;;
41653;SDS011;30790;52.030;7.110;2022-07-17T06:41:00;6.97;;;2.05;;
41653;SDS011;30790;52.030;7.110;2022-07-17T06:43:26;7.78;;;1.98;;
41653;SDS011;30790;52.030;7.110;2022-07-17T06:45:51;4.82;;;1.70;;
41653;SDS011;30790;52.030;7.110;2022-07-17T06:48:19;6.10;;;1.70;;
41653;SDS011;30790;52.030;7.110;2022-07-17T06:50:45;9.18;;;1.70;;
41653;SDS011;30790;52.030;7.110;2022-07-17T06:53:10;7.55;;;1.77;;
41653;SDS011;30790;52.030;7.110;2022-07-17T06:55:35;6.55;;;1.92;;
41653;SDS011;30790;52.030;7.110;2022-07-17T06:58:01;6.63;;;1.50;;
41653;SDS011;30790;52.030;7.110;2022-07-17T07:00:26;9.05;;;1.65;;
41653;SDS011;30790;52.030;7.110;2022-07-17T07:02:52;7.75;;;1.85;;
41653;SDS011;30790;52.030;7.110;2022-07-17T07:05:17;20.25;;;5.68;;
41653;SDS011;30790;52.030;7.110;2022-07-17T07:07:42;28.35;;;6.15;;
41653;SDS011;30790;52.030;7.110;2022-07-17T07:10:08;28.48;;;5.68;;
41653;SDS011;30790;52.030;7.110;2022-07-17T07:12:33;19.15;;;4.55;;
41653;SDS011;30790;52.030;7.110;2022-07-17T07:14:59;15.25;;;4.57;;
41653;SDS011;30790;52.030;7.110;2022-07-17T07:17:24;17.20;;;3.08;;
41653;SDS011;30790;52.030;7.110;2022-07-17T07:19:50;14.07;;;2.53;;
41653;SDS011;30790;52.030;7.110;2022-07-17T07:22:15;11.40;;;3.00;;
41653;SDS011;30790;52.030;7.110;2022-07-17T07:24:40;12.80;;;2.58;;
41653;SDS011;30790;52.030;7.110;2022-07-17T07:27:05;12.50;;;2.42;;
41653;SDS011;30790;52.030;7.110;2022-07-17T07:29:31;18.17;;;2.25;;
41653;SDS011;30790;52.030;7.110;2022-07-17T07:31:56;6.35;;;2.22;;
41653;SDS011;30790;52.030;7.110;2022-07-17T07:34:22;9.75;;;1.77;;
41653;SDS011;30790;52.030;7.110;2022-07-17T07:36:47;8.07;;;2.33;;
41653;SDS011;30790;52.030;7.110;2022-07-17T07:39:12;10.43;;;2.03;;
41653;SDS011;30790;52.030;7.110;2022-07-17T07:41:38;11.63;;;2.25;;
41653;SDS011;30790;52.030;7.110;2022-07-17T07:44:03;8.82;;;2.47;;
41653;SDS011;30790;52.030;7.110;2022-07-17T07:46:29;8.70;;;1.85;;
41653;SDS011;30790;52.030;7.110;2022-07-17T07:48:54;11.95;;;2.58;;
41653;SDS011;30790;52.030;7.110;2022-07-17T07:51:19;12.00;;;3.00;;
41653;SDS011;30790;52.030;7.110;2022-07-17T07:53:45;9.05;;;2.38;;
41653;SDS011;30790;52.030;7.110;2022-07-17T07:56:10;7.72;;;2.28;;
41653;SDS011;30790;52.030;7.110;2022-07-17T07:58:35;7.57;;;2.63;;
41653;SDS011;30790;52.030;7.110;2022-07-17T08:01:00;9.75;;;2.50;;
41653;SDS011;30790;52.030;7.110;2022-07-17T08:03:26;12.32;;;2.85;;
41653;SDS011;30790;52.030;7.110;2022-07-17T08:05:51;7.32;;;1.73;;
41653;SDS011;30790;52.030;7.110;2022-07-17T08:08:16;9.85;;;1.95;;
41653;SDS011;30790;52.030;7.110;2022-07-17T08:10:42;6.22;;;1.77;;
41653;SDS011;30790;52.030;7.110;2022-07-17T08:13:07;5.82;;;2.10;;
41653;SDS011;30790;52.030;7.110;2022-07-17T08:15:32;13.13;;;2.55;;
41653;SDS011;30790;52.030;7.110;2022-07-17T08:17:58;9.70;;;2.78;;
41653;SDS011;30790;52.030;7.110;2022-07-17T08:20:24;9.90;;;2.22;;
41653;SDS011;30790;52.030;7.110;2022-07-17T08:22:50;6.95;;;1.60;;
41653;SDS011;30790;52.030;7.110;2022-07-17T08:25:17;5.70;;;1.88;;
41653;SDS011;30790;52.030;7.110;2022-07-17T08:27:43;7.57;;;1.77;;
41653;SDS011;30790;52.030;7.110;2022-07-17T08:30:09;6.10;;;2.10;;
41653;SDS011;30790;52.030;7.110;2022-07-17T08:32:36;7.60;;;1.85;;
41653;SDS011;30790;52.030;7.110;2022-07-17T08:35:02;7.22;;;2.13;;
41653;SDS011;30790;52.030;7.110;2022-07-17T08:37:28;7.32;;;1.70;;
41653;SDS011;30790;52.030;7.110;2022-07-17T08:39:54;9.20;;;2.17;;
41653;SDS011;30790;52.030;7.110;2022-07-17T08:42:19;7.05;;;2.10;;
41653;SDS011;30790;52.030;7.110;2022-07-17T08:44:45;7.45;;;2.10;;
41653;SDS011;30790;52.030;7.110;2022-07-17T08:47:11;6.75;;;2.10;;
41653;SDS011;30790;52.030;7.110;2022-07-17T08:49:40;5.90;;;1.92;;
41653;SDS011;30790;52.030;7.110;2022-07-17T08:52:10;5.60;;;2.10;;
41653;SDS011;30790;52.030;7.110;2022-07-17T08:54:35;9.15;;;2.30;;
41653;SDS011;30790;52.030;7.110;2022-07-17T08:57:01;9.48;;;1.95;;
41653;SDS011;30790;52.030;7.110;2022-07-17T08:59:27;9.25;;;2.13;;
41653;SDS011;30790;52.030;7.110;2022-07-17T09:01:52;6.70;;;2.00;;
41653;SDS011;30790;52.030;7.110;2022-07-17T09:04:18;5.53;;;1.70;;
41653;SDS011;30790;52.030;7.110;2022-07-17T09:06:43;8.68;;;1.80;;
41653;SDS011;30790;52.030;7.110;2022-07-17T09:09:09;5.55;;;1.73;;
41653;SDS011;30790;52.030;7.110;2022-07-17T09:12:10;5.95;;;2.15;;
41653;SDS011;30790;52.030;7.110;2022-07-17T09:14:39;4.80;;;1.55;;
41653;SDS011;30790;52.030;7.110;2022-07-17T09:17:07;6.40;;;2.22;;
41653;SDS011;30790;52.030;7.110;2022-07-17T09:19:34;10.55;;;2.47;;
41653;SDS011;30790;52.030;7.110;2022-07-17T09:29:54;4.85;;;1.42;;
41653;SDS011;30790;52.030;7.110;2022-07-17T09:32:35;7.65;;;2.05;;
41653;SDS011;30790;52.030;7.110;2022-07-17T09:35:03;9.02;;;2.33;;
41653;SDS011;30790;52.030;7.110;2022-07-17T09:37:30;6.30;;;1.67;;
41653;SDS011;30790;52.030;7.110;2022-07-17T09:39:57;10.65;;;1.88;;
41653;SDS011;30790;52.030;7.110;2022-07-17T09:42:24;7.85;;;2.05;;
41653;SDS011;30790;52.030;7.110;2022-07-17T09:45:00;7.28;;;2.03;;
41653;SDS011;30790;52.030;7.110;2022-07-17T09:47:29;11.23;;;2.10;;
41653;SDS011;30790;52.030;7.110;2022-07-17T09:49:57;7.53;;;2.00;;
41653;SDS011;30790;52.030;7.110;2022-07-17T09:52:25;21.30;;;2.97;;
41653;SDS011;30790;52.030;7.110;2022-07-17T09:54:52;33.15;;;4.65;;
41653;SDS011;30790;52.030;7.110;2022-07-17T09:57:19;27.92;;;4.90;;
41653;SDS011;30790;52.030;7.110;2022-07-17T09:59:49;14.90;;;3.03;;
41653;SDS011;30790;52.030;7.110;2022-07-17T10:02:15;14.40;;;2.45;;
41653;SDS011;30790;52.030;7.110;2022-07-17T10:04:41;10.32;;;2.35;;
41653;SDS011;30790;52.030;7.110;2022-07-17T10:07:07;12.95;;;2.92;;
41653;SDS011;30790;52.030;7.110;2022-07-17T10:09:34;13.50;;;2.85;;
41653;SDS011;30790;52.030;7.110;2022-07-17T10:11:59;11.02;;;2.65;;
41653;SDS011;30790;52.030;7.110;2022-07-17T10:14:25;18.75;;;3.35;;
41653;SDS011;30790;52.030;7.110;2022-07-17T10:16:51;15.10;;;2.83;;
41653;SDS011;30790;52.030;7.110;2022-07-17T10:19:21;16.65;;;3.45;;
41653;SDS011;30790;52.030;7.110;2022-07-17T10:21:52;17.10;;;2.90;;
41653;SDS011;30790;52.030;7.110;2022-07-17T10:24:21;13.95;;;2.65;;
41653;SDS011;30790;52.030;7.110;2022-07-17T10:26:47;15.38;;;3.08;;
41653;SDS011;30790;52.030;7.110;2022-07-17T10:29:26;14.35;;;3.10;;
41653;SDS011;30790;52.030;7.110;2022-07-17T10:31:53;14.05;;;2.63;;
41653;SDS011;30790;52.030;7.110;2022-07-17T10:34:21;15.63;;;2.38;;
41653;SDS011;30790;52.030;7.110;2022-07-17T10:37:01;10.52;;;2.55;;
41653;SDS011;30790;52.030;7.110;2022-07-17T10:39:27;12.68;;;2.47;;
41653;SDS011;30790;52.030;7.110;2022-07-17T10:41:56;9.75;;;2.25;;
41653;SDS011;30790;52.030;7.110;2022-07-17T10:44:23;9.55;;;2.00;;
41653;SDS011;30790;52.030;7.110;2022-07-17T10:46:52;9.95;;;1.98;;
41653;SDS011;30790;52.030;7.110;2022-07-17T10:49:18;19.50;;;2.60;;
41653;SDS011;30790;52.030;7.110;2022-07-17T10:51:44;17.45;;;3.55;;
41653;SDS011;30790;52.030;7.110;2022-07-17T10:54:11;19.60;;;3.08;;
41653;SDS011;30790;52.030;7.110;2022-07-17T10:56:36;13.60;;;3.00;;
41653;SDS011;30790;52.030;7.110;2022-07-17T10:59:05;8.93;;;2.65;;
41653;SDS011;30790;52.030;7.110;2022-07-17T11:01:31;18.42;;;2.80;;
41653;SDS011;30790;52.030;7.110;2022-07-17T11:03:57;16.25;;;2.92;;
41653;SDS011;30790;52.030;7.110;2022-07-17T11:06:28;14.20;;;3.40;;
41653;SDS011;30790;52.030;7.110;2022-07-17T11:16:46;8.35;;;2.53;;
41653;SDS011;30790;52.030;7.110;2022-07-17T11:19:27;11.25;;;2.50;;
41653;SDS011;30790;52.030;7.110;2022-07-17T11:21:56;16.85;;;3.67;;
41653;SDS011;30790;52.030;7.110;2022-07-17T11:24:22;13.75;;;2.97;;
41653;SDS011;30790;52.030;7.110;2022-07-17T11:26:49;19.15;;;2.80;;
41653;SDS011;30790;52.030;7.110;2022-07-17T11:29:16;15.93;;;2.28;;
41653;SDS011;30790;52.030;7.110;2022-07-17T11:31:42;8.60;;;2.28;;
41653;SDS011;30790;52.030;7.110;2022-07-17T11:34:09;10.10;;;2.40;;
41653;SDS011;30790;52.030;7.110;2022-07-17T11:36:37;11.25;;;2.78;;
41653;SDS011;30790;52.030;7.110;2022-07-17T11:39:05;20.65;;;3.20;;
41653;SDS011;30790;52.030;7.110;2022-07-17T11:41:42;21.63;;;2.95;;
41653;SDS011;30790;52.030;7.110;2022-07-17T11:44:17;12.65;;;3.45;;
41653;SDS011;30790;52.030;7.110;2022-07-17T11:46:45;17.42;;;3.47;;
41653;SDS011;30790;52.030;7.110;2022-07-17T11:49:28;22.63;;;3.15;;
41653;SDS011;30790;52.030;7.110;2022-07-17T11:51:55;15.98;;;3.28;;
41653;SDS011;30790;52.030;7.110;2022-07-17T11:54:23;21.92;;;3.25;;
41653;SDS011;30790;52.030;7.110;2022-07-17T11:56:56;28.83;;;3.08;;
41653;SDS011;30790;52.030;7.110;2022-07-17T11:59:27;15.85;;;3.00;;
41653;SDS011;30790;52.030;7.110;2022-07-17T12:01:54;12.32;;;2.70;;
41653;SDS011;30790;52.030;7.110;2022-07-17T12:04:20;21.65;;;3.47;;
41653;SDS011;30790;52.030;7.110;2022-07-17T12:06:46;14.98;;;2.55;;
41653;SDS011;30790;52.030;7.110;2022-07-17T12:09:25;16.30;;;2.45;;
41653;SDS011;30790;52.030;7.110;2022-07-17T12:11:55;21.73;;;3.03;;
41653;SDS011;30790;52.030;7.110;2022-07-17T12:14:20;20.88;;;3.67;;
41653;SDS011;30790;52.030;7.110;2022-07-17T12:16:46;13.65;;;2.63;;
41653;SDS011;30790;52.030;7.110;2022-07-17T12:19:12;13.43;;;2.78;;
41653;SDS011;30790;52.030;7.110;2022-07-17T12:22:00;17.58;;;3.10;;
41653;SDS011;30790;52.030;7.110;2022-07-17T12:24:28;10.60;;;2.88;;
41653;SDS011;30790;52.030;7.110;2022-07-17T12:26:56;15.63;;;2.88;;
41653;SDS011;30790;52.030;7.110;2022-07-17T12:29:24;14.95;;;2.78;;
41653;SDS011;30790;52.030;7.110;2022-07-17T12:32:03;10.93;;;3.30;;
41653;SDS011;30790;52.030;7.110;2022-07-17T12:34:43;11.32;;;2.88;;
41653;SDS011;30790;52.030;7.110;2022-07-17T12:37:15;7.97;;;2.60;;
41653;SDS011;30790;52.030;7.110;2022-07-17T12:39:41;13.18;;;3.08;;
41653;SDS011;30790;52.030;7.110;2022-07-17T12:42:08;16.60;;;2.40;;
41653;SDS011;30790;52.030;7.110;2022-07-17T12:44:34;15.48;;;2.40;;
41653;SDS011;30790;52.030;7.110;2022-07-17T12:46:59;14.13;;;2.55;;
41653;SDS011;30790;52.030;7.110;2022-07-17T12:49:25;8.18;;;3.03;;
41653;SDS011;30790;52.030;7.110;2022-07-17T12:51:50;13.48;;;2.33;;
41653;SDS011;30790;52.030;7.110;2022-07-17T12:54:16;12.55;;;2.42;;
41653;SDS011;30790;52.030;7.110;2022-07-17T12:56:41;14.15;;;2.50;;
41653;SDS011;30790;52.030;7.110;2022-07-17T12:59:07;5.72;;;2.17;;
41653;SDS011;30790;52.030;7.110;2022-07-17T13:01:32;13.93;;;2.78;;
41653;SDS011;30790;52.030;7.110;2022-07-17T13:03:58;8.23;;;2.20;;
41653;SDS011;30790;52.030;7.110;2022-07-17T13:06:24;10.80;;;2.10;;
41653;SDS011;30790;52.030;7.110;2022-07-17T13:08:49;10.32;;;1.80;;
41653;SDS011;30790;52.030;7.110;2022-07-17T13:11:15;8.52;;;1.98;;
41653;SDS011;30790;52.030;7.110;2022-07-17T13:13:40;16.45;;;2.55;;
41653;SDS011;30790;52.030;7.110;2022-07-17T13:16:05;11.13;;;2.15;;
41653;SDS011;30790;52.030;7.110;2022-07-17T13:18:31;7.05;;;2.50;;
41653;SDS011;30790;52.030;7.110;2022-07-17T13:20:56;9.68;;;2.40;;
41653;SDS011;30790;52.030;7.110;2022-07-17T13:23:22;9.43;;;1.85;;
41653;SDS011;30790;52.030;7.110;2022-07-17T13:25:47;8.85;;;2.63;;
41653;SDS011;30790;52.030;7.110;2022-07-17T13:28:12;13.98;;;2.95;;
41653;SDS011;30790;52.030;7.110;2022-07-17T13:30:38;9.68;;;2.33;;
41653;SDS011;30790;52.030;7.110;2022-07-17T13:33:04;8.70;;;2.05;;
41653;SDS011;30790;52.030;7.110;2022-07-17T13:35:29;7.72;;;2.15;;
41653;SDS011;30790;52.030;7.110;2022-07-17T13:37:55;14.00;;;2.40;;
41653;SDS011;30790;52.030;7.110;2022-07-17T13:40:21;6.95;;;2.25;;
41653;SDS011;30790;52.030;7.110;2022-07-17T13:42:49;5.07;;;1.70;;
41653;SDS011;30790;52.030;7.110;2022-07-17T13:45:15;10.32;;;2.58;;
41653;SDS011;30790;52.030;7.110;2022-07-17T13:47:41;8.75;;;1.80;;
41653;SDS011;30790;52.030;7.110;2022-07-17T13:50:06;10.85;;;2.20;;
41653;SDS011;30790;52.030;7.110;2022-07-17T13:52:32;11.93;;;2.30;;
41653;SDS011;30790;52.030;7.110;2022-07-17T13:54:57;7.03;;;2.42;;
41653;SDS011;30790;52.030;7.110;2022-07-17T13:57:23;7.68;;;1.45;;
41653;SDS011;30790;52.030;7.110;2022-07-17T13:59:49;9.40;;;2.10;;
41653;SDS011;30790;52.030;7.110;2022-07-17T14:02:14;10.18;;;2.30;;
41653;SDS011;30790;52.030;7.110;2022-07-17T14:04:40;10.52;;;1.80;;
41653;SDS011;30790;52.030;7.110;2022-07-17T14:07:05;11.65;;;2.53;;
41653;SDS011;30790;52.030;7.110;2022-07-17T14:09:32;11.60;;;2.67;;
41653;SDS011;30790;52.030;7.110;2022-07-17T14:11:57;9.70;;;2.55;;
41653;SDS011;30790;52.030;7.110;2022-07-17T14:14:23;6.57;;;1.65;;
41653;SDS011;30790;52.030;7.110;2022-07-17T14:16:48;7.95;;;1.90;;
41653;SDS011;30790;52.030;7.110;2022-07-17T14:19:13;9.88;;;2.20;;
41653;SDS011;30790;52.030;7.110;2022-07-17T14:21:39;5.95;;;1.90;;
41653;SDS011;30790;52.030;7.110;2022-07-17T14:24:04;7.78;;;2.08;;
41653;SDS011;30790;52.030;7.110;2022-07-17T14:26:31;10.02;;;1.98;;
41653;SDS011;30790;52.030;7.110;2022-07-17T14:28:57;8.73;;;2.15;;
41653;SDS011;30790;52.030;7.110;2022-07-17T14:31:23;9.50;;;1.83;;
41653;SDS011;30790;52.030;7.110;2022-07-17T14:33:48;8.57;;;1.95;;
41653;SDS011;30790;52.030;7.110;2022-07-17T14:36:14;9.10;;;1.98;;
41653;SDS011;30790;52.030;7.110;2022-07-17T14:38:40;7.28;;;2.20;;
41653;SDS011;30790;52.030;7.110;2022-07-17T14:41:05;6.43;;;1.50;;
41653;SDS011;30790;52.030;7.110;2022-07-17T14:43:31;9.20;;;1.77;;
41653;SDS011;30790;52.030;7.110;2022-07-17T14:45:57;9.90;;;1.75;;
41653;SDS011;30790;52.030;7.110;2022-07-17T14:48:22;5.47;;;1.50;;
41653;SDS011;30790;52.030;7.110;2022-07-17T14:50:48;7.63;;;1.83;;
41653;SDS011;30790;52.030;7.110;2022-07-17T14:53:13;10.93;;;2.22;;
41653;SDS011;30790;52.030;7.110;2022-07-17T14:55:38;6.80;;;1.85;;